This is the latest recevied weather packets stored in our database for station/object G4RHR. If no packets are shown the sender has not sent any weather packets the latest 10 day(s).
| Time | Temp. | Humidity | Pressure | Rain* | Wind** | Luminosity | Snow |
|---|---|---|---|---|---|---|---|
| 1777321031 | 11.11° C | 81% | 1021.6 hPa | 0 mm | - | - | - |
| 1777317253 | 12.22° C | 77% | 1021.3 hPa | 0.25 mm | - | - | - |
| 1777314549 | 13.33° C | 63% | 1021.8 hPa | 0 mm | - | - | - |
| 1777313341 | 13.89° C | 64% | 1021.7 hPa | 0 mm | - | - | - |
| 1777307941 | 15° C | 60% | 1021 hPa | 0 mm | - | - | - |
| 1777303751 | 16.67° C | 53% | 1021.4 hPa | 0 mm | - | - | - |
| 1777300920 | 17.78° C | 49% | 1021.9 hPa | 0 mm | - | - | - |
| 1777296600 | 18.89° C | 49% | 1022.6 hPa | 0 mm | - | - | - |
| 1777294034 | 20° C | 48% | 1022.8 hPa | 0 mm | - | - | - |
| 1777293491 | 19.44° C | 49% | 1022.8 hPa | 0 mm | - | - | - |
| 1777292280 | 19.44° C | 50% | 1022.9 hPa | 0 mm | - | - | - |
| 1777291200 | 18.89° C | 54% | 1023.1 hPa | 0 mm | - | - | - |
| 1777290660 | 18.89° C | 54% | 1023.1 hPa | 0 mm | - | - | - |
| 1777285260 | 18.89° C | 60% | 1023.5 hPa | 0 mm | - | - | - |
| 1777284180 | 18.33° C | 60% | 1023.5 hPa | 0 mm | - | - | - |
| 1777283100 | 17.78° C | 60% | 1023.6 hPa | 0 mm | - | - | - |
| 1777278783 | 15.56° C | 68% | 1023.8 hPa | 0 mm | - | - | - |
| 1777273920 | 11.11° C | 87% | 1024 hPa | 0 mm | - | - | - |
| 1777273383 | 10.56° C | 88% | 1024 hPa | 0 mm | - | - | - |
| 1777270277 | 7.22° C | 94% | 1023.9 hPa | 0 mm | - | - | - |
| 1777263795 | 6.11° C | 92% | 1023 hPa | 0 mm | - | - | - |
| 1777262581 | 6.67° C | 92% | 1023.2 hPa | 0 mm | - | - | - |
| 1777262041 | 6.67° C | 92% | 1023.3 hPa | 0 mm | - | - | - |
| 1777253941 | 6.67° C | 91% | 1024 hPa | 0 mm | - | - | - |
| 1777251244 | 6.67° C | 91% | 1023.9 hPa | 0 mm | - | - | - |
* Rain latest hour (hover to see other rain measurements)
** Current wind speed in m/s (hover to see current wind gust speed)